createdAt,value
2019-04-01T00:00:44.468Z,92.70
2019-04-01T00:03:14.999Z,92.80
2019-04-01T00:05:45.524Z,93.00
2019-04-01T00:08:15.991Z,93.20
2019-04-01T00:10:46.673Z,93.40
2019-04-01T00:13:18.876Z,93.60
2019-04-01T00:15:49.532Z,93.80
2019-04-01T00:18:19.907Z,94.30
2019-04-01T00:20:50.497Z,94.70
2019-04-01T00:23:21.482Z,95.10
2019-04-01T00:25:51.961Z,95.30
2019-04-01T00:28:22.649Z,95.80
2019-04-01T00:30:53.156Z,96.40
2019-04-01T00:33:23.686Z,96.80
2019-04-01T00:35:54.161Z,97.60
2019-04-01T00:38:24.553Z,97.70
2019-04-01T00:40:54.996Z,98.30
2019-04-01T00:43:44.592Z,98.50
2019-04-01T00:46:17.268Z,98.60
2019-04-01T00:48:47.930Z,98.90
2019-04-01T00:51:18.365Z,99.30
2019-04-01T00:53:50.567Z,99.60
2019-04-01T00:56:21.187Z,99.90
2019-04-01T00:58:51.615Z,99.90
2019-04-01T01:01:22.504Z,99.90
2019-04-01T01:03:53.178Z,99.90
2019-04-01T01:06:23.782Z,99.90
2019-04-01T01:08:54.196Z,99.90
2019-04-01T01:11:25.186Z,99.90
2019-04-01T01:13:55.659Z,99.90
2019-04-01T01:16:26.285Z,99.90
2019-04-01T01:18:57.264Z,99.90
2019-04-01T01:21:28.358Z,99.90
2019-04-01T01:23:58.777Z,99.90
2019-04-01T01:26:29.619Z,99.90
2019-04-01T01:28:59.994Z,99.90
2019-04-01T01:31:30.652Z,99.90
2019-04-01T01:34:01.026Z,99.90
2019-04-01T01:36:32.053Z,99.90
2019-04-01T01:39:02.325Z,99.90
2019-04-01T01:41:34.477Z,99.90
2019-04-01T01:44:05.159Z,99.90
2019-04-01T01:46:35.551Z,99.90
2019-04-01T01:49:06.073Z,99.90
2019-04-01T01:51:36.851Z,99.90
2019-04-01T01:54:07.958Z,99.90
2019-04-01T01:56:38.765Z,99.90
2019-04-01T01:59:09.337Z,99.90
2019-04-01T02:01:39.945Z,99.90
2019-04-01T02:04:10.578Z,99.90
2019-04-01T02:06:40.982Z,99.90
2019-04-01T02:09:11.357Z,99.90
2019-04-01T02:11:42.732Z,99.90
2019-04-01T02:14:13.477Z,99.90
2019-04-01T02:16:44.060Z,99.90
2019-04-01T02:19:14.487Z,99.90
2019-04-01T02:21:45.307Z,99.90
2019-04-01T02:24:15.767Z,99.90
2019-04-01T02:26:46.351Z,99.90
2019-04-01T02:29:16.802Z,99.90
2019-04-01T02:31:47.286Z,99.90
2019-04-01T02:34:17.659Z,99.90
2019-04-01T02:36:48.455Z,99.90
2019-04-01T02:39:19.027Z,99.90
2019-04-01T02:41:49.943Z,99.90
2019-04-01T02:44:20.447Z,99.90
2019-04-01T02:46:50.878Z,99.90
2019-04-01T02:49:21.370Z,99.90
2019-04-01T02:51:52.179Z,99.90
2019-04-01T02:54:22.541Z,99.90
2019-04-01T02:56:52.887Z,99.90
2019-04-01T02:59:23.484Z,99.90
2019-04-01T03:01:53.890Z,99.90
2019-04-01T03:04:24.318Z,99.90
2019-04-01T03:06:55.948Z,99.90
2019-04-01T03:09:26.360Z,99.90
2019-04-01T03:11:56.707Z,99.90
2019-04-01T03:14:27.114Z,99.90
2019-04-01T03:16:57.605Z,99.90
2019-04-01T03:19:28.034Z,99.90
2019-04-01T03:21:58.560Z,99.90
2019-04-01T03:24:28.976Z,99.90
2019-04-01T03:26:59.420Z,99.90
2019-04-01T03:29:29.869Z,99.90
2019-04-01T03:32:00.357Z,99.90
2019-04-01T03:34:30.953Z,99.90
2019-04-01T03:37:01.471Z,99.90
2019-04-01T03:39:31.871Z,99.90
2019-04-01T03:42:02.422Z,99.90
2019-04-01T03:44:32.873Z,99.90
2019-04-01T03:47:03.265Z,99.90
2019-04-01T03:49:33.695Z,99.90
2019-04-01T03:52:04.088Z,99.90
2019-04-01T03:54:34.710Z,99.90
2019-04-01T03:57:05.108Z,99.90
2019-04-01T03:59:35.605Z,99.90
2019-04-01T04:02:06.026Z,99.90
2019-04-01T04:04:36.627Z,99.90
2019-04-01T04:07:09.069Z,99.90
2019-04-01T04:09:39.714Z,99.90
2019-04-01T04:12:10.277Z,99.90
2019-04-01T04:14:40.760Z,99.90
2019-04-01T04:17:11.129Z,99.90
2019-04-01T04:19:43.586Z,99.90
2019-04-01T04:22:14.046Z,99.90
2019-04-01T04:24:44.733Z,99.90
2019-04-01T04:27:15.584Z,99.90
2019-04-01T04:29:45.999Z,99.90
2019-04-01T04:32:17.147Z,99.90
2019-04-01T04:34:48.852Z,99.90
2019-04-01T04:37:19.733Z,99.90
2019-04-01T04:39:50.529Z,99.90
2019-04-01T04:42:21.137Z,99.90
2019-04-01T04:44:51.874Z,99.90
2019-04-01T04:47:22.447Z,99.90
2019-04-01T04:49:52.979Z,99.90
2019-04-01T04:52:25.020Z,99.90
2019-04-01T04:54:55.718Z,99.90
2019-04-01T04:57:26.313Z,99.90
2019-04-01T04:59:56.797Z,99.90
2019-04-01T05:02:27.651Z,99.90
2019-04-01T05:04:58.136Z,99.90
2019-04-01T05:07:31.304Z,99.90
2019-04-01T05:10:01.142Z,99.90
2019-04-01T05:12:31.631Z,99.90
2019-04-01T05:15:02.352Z,99.90
2019-04-01T05:17:32.905Z,99.90
2019-04-01T05:20:03.995Z,99.90
2019-04-01T05:22:35.972Z,99.90
2019-04-01T05:25:06.409Z,99.90
2019-04-01T05:27:37.577Z,99.90
2019-04-01T05:30:09.491Z,99.90
2019-04-01T05:32:41.463Z,99.90
2019-04-01T05:35:12.265Z,99.90
2019-04-01T05:37:42.717Z,99.90
2019-04-01T05:40:13.436Z,99.90
2019-04-01T05:42:44.035Z,99.90
2019-04-01T05:45:14.643Z,99.90
2019-04-01T05:47:48.156Z,99.90
2019-04-01T05:50:18.881Z,99.90
2019-04-01T05:52:50.953Z,99.90
2019-04-01T05:55:21.445Z,99.90
2019-04-01T05:57:51.809Z,99.90
2019-04-01T06:00:38.599Z,99.80
2019-04-01T06:03:08.879Z,98.30
2019-04-01T06:05:39.490Z,96.50
2019-04-01T06:08:10.509Z,96.50
2019-04-01T06:10:44.275Z,94.90
2019-04-01T06:13:17.093Z,93.70
2019-04-01T06:15:47.556Z,92.90
2019-04-01T06:18:18.504Z,92.20
2019-04-01T06:20:48.973Z,92.10
2019-04-01T06:23:19.406Z,91.50
2019-04-01T06:25:49.849Z,91.20
2019-04-01T06:28:20.306Z,90.30
2019-04-01T06:30:51.105Z,89.10
2019-04-01T06:33:21.686Z,88.10
2019-04-01T06:35:52.473Z,87.40
2019-04-01T06:38:22.996Z,87.40
2019-04-01T06:40:55.168Z,86.90
2019-04-01T06:43:27.330Z,88.00
2019-04-01T06:45:58.057Z,88.60
2019-04-01T06:48:28.590Z,89.50
2019-04-01T06:50:59.645Z,89.50
2019-04-01T06:53:30.104Z,89.30
2019-04-01T06:56:01.073Z,87.50
2019-04-01T06:58:31.887Z,86.90
2019-04-01T07:01:03.142Z,84.50
2019-04-01T07:03:34.092Z,84.00
2019-04-01T07:06:05.052Z,83.10
2019-04-01T07:08:35.626Z,81.10
2019-04-01T07:11:06.720Z,80.20
2019-04-01T07:13:40.052Z,79.00
2019-04-01T07:16:15.944Z,78.20
2019-04-01T07:18:41.534Z,76.10
2019-04-01T07:21:11.996Z,74.60
2019-04-01T07:23:42.610Z,72.90
2019-04-01T07:26:13.059Z,72.30
2019-04-01T07:28:43.564Z,70.80
2019-04-01T07:31:14.000Z,68.70
2019-04-01T07:33:45.664Z,70.20
2019-04-01T07:36:16.198Z,70.00
2019-04-01T07:38:47.439Z,68.10
2019-04-01T07:41:18.044Z,69.20
2019-04-01T07:43:48.698Z,68.20
2019-04-01T07:46:19.238Z,66.50
2019-04-01T07:48:51.271Z,65.90
2019-04-01T07:51:22.392Z,64.90
2019-04-01T07:53:52.948Z,63.80
2019-04-01T07:56:23.526Z,62.90
2019-04-01T07:58:54.328Z,62.30
2019-04-01T08:01:25.010Z,61.50
2019-04-01T08:03:55.905Z,60.70
2019-04-01T08:06:26.503Z,59.70
2019-04-01T08:08:57.015Z,59.40
2019-04-01T08:11:27.438Z,59.60
2019-04-01T08:13:58.422Z,60.30
2019-04-01T08:16:29.113Z,59.20
2019-04-01T08:19:00.074Z,59.00
2019-04-01T08:21:30.474Z,58.90
2019-04-01T08:24:01.002Z,59.10
2019-04-01T08:26:31.429Z,58.90
2019-04-01T08:29:01.858Z,58.50
2019-04-01T08:31:32.283Z,59.60
2019-04-01T08:34:03.011Z,59.50
2019-04-01T08:36:33.456Z,60.40
2019-04-01T08:39:05.555Z,61.90
2019-04-01T08:41:36.298Z,64.00
2019-04-01T08:44:06.724Z,65.60
2019-04-01T08:46:38.422Z,66.40
2019-04-01T08:49:08.952Z,67.00
2019-04-01T08:51:39.927Z,66.10
2019-04-01T08:54:10.458Z,65.90
2019-04-01T08:56:48.983Z,64.10
2019-04-01T08:59:20.176Z,62.30
2019-04-01T09:01:50.649Z,60.60
2019-04-01T09:04:23.296Z,58.70
2019-04-01T09:06:54.093Z,56.70
2019-04-01T09:09:26.343Z,56.50
2019-04-01T09:11:58.290Z,58.00
2019-04-01T09:14:29.364Z,59.40
2019-04-01T09:17:00.670Z,60.30
2019-04-01T09:19:31.344Z,60.80
2019-04-01T09:22:02.072Z,59.10
2019-04-01T09:24:32.493Z,57.60
2019-04-01T09:27:07.895Z,56.70
2019-04-01T09:29:38.278Z,56.80
2019-04-01T09:32:08.933Z,55.80
2019-04-01T09:34:39.524Z,57.00
2019-04-01T09:37:10.204Z,56.70
2019-04-01T09:39:41.783Z,56.30
2019-04-01T09:42:12.392Z,54.00
2019-04-01T09:44:43.244Z,53.30
2019-04-01T09:47:13.602Z,52.80
2019-04-01T09:49:44.071Z,51.50
2019-04-01T09:52:15.104Z,51.90
2019-04-01T09:54:45.520Z,52.80
2019-04-01T09:57:18.305Z,53.20
2019-04-01T09:59:49.704Z,53.80
2019-04-01T10:02:31.719Z,54.40
2019-04-01T10:04:52.856Z,53.90
2019-04-01T10:07:23.461Z,53.40
2019-04-01T10:09:54.018Z,50.80
2019-04-01T10:12:26.048Z,49.60
2019-04-01T10:14:56.453Z,47.80
2019-04-01T10:17:26.960Z,47.40
2019-04-01T10:20:00.737Z,46.70
2019-04-01T10:22:29.413Z,45.70
2019-04-01T10:25:00.026Z,45.10
2019-04-01T10:27:30.428Z,45.40
2019-04-01T10:30:00.832Z,46.20
2019-04-01T10:32:31.649Z,46.00
2019-04-01T10:35:02.259Z,43.00
2019-04-01T10:37:32.754Z,42.00
2019-04-01T10:40:03.280Z,40.80
2019-04-01T10:42:34.210Z,41.90
2019-04-01T10:45:06.027Z,42.60
2019-04-01T10:47:36.998Z,41.60
2019-04-01T10:50:08.248Z,38.90
2019-04-01T10:52:38.815Z,38.00
2019-04-01T10:55:10.307Z,38.70
2019-04-01T10:57:43.416Z,37.90
2019-04-01T11:00:13.992Z,37.70
2019-04-01T11:02:44.798Z,37.70
2019-04-01T11:05:18.285Z,38.10
2019-04-01T11:07:49.086Z,38.00
2019-04-01T11:10:19.665Z,37.90
2019-04-01T11:12:50.180Z,38.50
2019-04-01T11:15:21.806Z,41.00
2019-04-01T11:17:52.845Z,42.80
2019-04-01T11:20:23.388Z,43.30
2019-04-01T11:22:53.869Z,43.10
2019-04-01T11:25:24.301Z,42.70
2019-04-01T11:27:54.846Z,41.50
2019-04-01T11:30:26.288Z,39.30
2019-04-01T11:32:56.864Z,39.90
2019-04-01T11:35:27.915Z,40.20
2019-04-01T11:37:58.447Z,40.70
2019-04-01T11:40:29.012Z,39.20
2019-04-01T11:42:59.730Z,38.70
2019-04-01T11:45:30.412Z,39.40
2019-04-01T11:48:01.773Z,38.90
2019-04-01T11:50:32.278Z,38.10
2019-04-01T11:53:02.783Z,37.40
2019-04-01T11:55:33.222Z,36.90
2019-04-01T11:58:04.054Z,36.60
2019-04-01T12:00:34.576Z,36.80
2019-04-01T12:03:04.981Z,38.50
2019-04-01T12:05:35.433Z,39.90
2019-04-01T12:08:05.876Z,40.30
2019-04-01T12:10:36.578Z,39.30
2019-04-01T12:13:06.994Z,38.40
2019-04-01T12:15:37.427Z,37.90
2019-04-01T12:18:08.187Z,38.20
2019-04-01T12:20:38.798Z,38.40
2019-04-01T12:23:09.243Z,38.70
2019-04-01T12:25:40.224Z,38.90
2019-04-01T12:28:10.607Z,38.90
2019-04-01T12:30:41.208Z,38.60
2019-04-01T12:33:11.752Z,38.30
2019-04-01T12:35:42.324Z,38.70
2019-04-01T12:38:12.725Z,38.10
2019-04-01T12:40:43.140Z,36.10
2019-04-01T12:43:14.482Z,37.60
2019-04-01T12:45:46.351Z,37.40
2019-04-01T12:48:16.787Z,39.40
2019-04-01T12:50:47.386Z,40.90
2019-04-01T12:53:17.787Z,41.40
2019-04-01T12:55:49.118Z,42.50
2019-04-01T12:58:19.947Z,42.10
2019-04-01T13:00:51.732Z,43.20
2019-04-01T13:03:22.551Z,43.80
2019-04-01T13:05:54.041Z,44.00
2019-04-01T13:08:26.011Z,44.70
2019-04-01T13:10:56.770Z,46.10
2019-04-01T13:13:27.137Z,44.90
2019-04-01T13:15:57.585Z,45.00
2019-04-01T13:18:27.972Z,45.60
2019-04-01T13:20:58.365Z,45.30
2019-04-01T13:23:28.715Z,44.80
2019-04-01T13:25:59.238Z,45.40
2019-04-01T13:28:29.645Z,45.20
2019-04-01T13:31:01.683Z,45.80
2019-04-01T13:33:32.046Z,45.70
2019-04-01T13:36:02.747Z,45.70
2019-04-01T13:38:33.452Z,45.80
2019-04-01T13:41:04.625Z,45.70
2019-04-01T13:43:35.115Z,45.00
2019-04-01T13:46:05.933Z,44.80
2019-04-01T13:48:36.749Z,45.30
2019-04-01T13:51:07.237Z,45.30
2019-04-01T13:53:37.695Z,45.20
2019-04-01T13:56:10.157Z,45.00
2019-04-01T13:58:40.561Z,44.50
2019-04-01T14:01:11.349Z,44.60
2019-04-01T14:03:41.819Z,44.70
2019-04-01T14:06:12.236Z,44.50
2019-04-01T14:08:42.638Z,44.50
2019-04-01T14:11:13.248Z,42.70
2019-04-01T14:13:43.693Z,42.70
2019-04-01T14:16:14.097Z,43.50
2019-04-01T14:18:45.057Z,42.20
2019-04-01T14:21:20.483Z,42.30
2019-04-01T14:23:48.454Z,42.70
2019-04-01T14:26:19.083Z,42.80
2019-04-01T14:28:49.423Z,43.50
2019-04-01T14:31:19.836Z,43.30
2019-04-01T14:33:50.647Z,45.20
2019-04-01T14:36:21.377Z,47.70
2019-04-01T14:38:51.869Z,50.10
2019-04-01T14:43:55.030Z,40.90
2019-04-01T14:46:24.223Z,41.80
2019-04-01T14:48:54.547Z,42.10
2019-04-01T14:51:25.193Z,42.20
2019-04-01T14:53:55.693Z,42.00
2019-04-01T14:56:26.141Z,42.10
2019-04-01T14:58:57.800Z,43.20
2019-04-01T15:01:28.374Z,42.70
2019-04-01T15:08:59.098Z,42.30
2019-04-01T15:11:29.876Z,42.80
2019-04-01T15:14:00.348Z,43.10
2019-04-01T15:16:30.769Z,42.50
2019-04-01T15:19:01.524Z,40.40
2019-04-01T15:21:31.934Z,39.50
2019-04-01T15:24:02.533Z,39.40
2019-04-01T15:26:33.863Z,39.10
2019-04-01T15:29:04.849Z,41.20
2019-04-01T15:31:35.265Z,39.70
2019-04-01T15:34:09.008Z,41.10
2019-04-01T15:36:38.026Z,41.40
2019-04-01T15:39:12.370Z,41.30
2019-04-01T15:41:42.740Z,41.20
2019-04-01T15:44:13.192Z,41.20
2019-04-01T15:46:44.027Z,40.50
2019-04-01T15:49:14.619Z,40.00
2019-04-01T15:51:45.397Z,39.80
2019-04-01T15:54:15.764Z,39.50
2019-04-01T15:56:48.091Z,39.80
2019-04-01T15:59:18.568Z,40.40
2019-04-01T16:01:49.122Z,40.90
2019-04-01T16:04:19.815Z,41.70
2019-04-01T16:06:51.881Z,41.80
2019-04-01T16:09:22.349Z,42.00
2019-04-01T16:11:54.222Z,42.20
2019-04-01T16:14:25.011Z,42.00
2019-04-01T16:16:55.454Z,42.20
2019-04-01T16:19:26.003Z,42.40
2019-04-01T16:21:56.412Z,42.80
2019-04-01T16:24:26.907Z,43.40
2019-04-01T16:26:57.343Z,43.90
2019-04-01T16:29:27.876Z,43.60
2019-04-01T16:31:58.347Z,44.00
2019-04-01T16:34:28.727Z,43.40
2019-04-01T16:36:59.353Z,43.40
2019-04-01T16:39:29.823Z,42.60
2019-04-01T16:42:00.427Z,42.40
2019-04-01T16:44:31.088Z,41.70
2019-04-01T16:47:01.943Z,42.10
2019-04-01T16:49:32.328Z,42.50
2019-04-01T16:52:03.778Z,43.00
2019-04-01T16:54:34.321Z,43.30
2019-04-01T16:57:05.459Z,43.60
2019-04-01T16:59:36.888Z,43.70
2019-04-01T17:02:17.785Z,44.10
2019-04-01T17:04:39.465Z,44.20
2019-04-01T17:07:10.139Z,44.70
2019-04-01T17:09:40.487Z,44.30
2019-04-01T17:12:11.110Z,44.30
2019-04-01T17:14:41.521Z,44.10
2019-04-01T17:17:11.891Z,44.50
2019-04-01T17:19:42.291Z,44.70
2019-04-01T17:22:12.802Z,44.70
2019-04-01T17:24:45.812Z,45.30
2019-04-01T17:27:16.499Z,45.30
2019-04-01T17:29:47.898Z,45.40
2019-04-01T17:32:18.679Z,45.60
2019-04-01T17:34:49.239Z,45.90
2019-04-01T17:37:19.693Z,46.00
2019-04-01T17:39:50.195Z,46.00
2019-04-01T17:42:20.800Z,46.10
2019-04-01T17:44:55.039Z,46.20
2019-04-01T17:47:27.299Z,46.40
2019-04-01T17:49:57.597Z,46.60
2019-04-01T17:52:28.086Z,46.70
2019-04-01T17:54:58.561Z,47.00
2019-04-01T17:57:30.115Z,46.90
2019-04-01T18:00:00.701Z,47.00
2019-04-01T18:02:32.078Z,47.10
2019-04-01T18:05:02.600Z,47.20
2019-04-01T18:07:34.096Z,47.30
2019-04-01T18:10:04.929Z,47.40
2019-04-01T18:12:35.753Z,47.70
2019-04-01T18:15:06.420Z,47.80
2019-04-01T18:17:36.885Z,48.00
2019-04-01T18:20:08.345Z,48.10
2019-04-01T18:22:38.696Z,48.10
2019-04-01T18:25:09.469Z,48.30
2019-04-01T18:27:39.900Z,48.30
2019-04-01T18:30:11.014Z,48.60
2019-04-01T18:32:41.878Z,48.70
2019-04-01T18:35:12.955Z,48.60
2019-04-01T18:37:43.382Z,48.90
2019-04-01T18:40:15.643Z,48.80
2019-04-01T18:42:46.203Z,49.20
2019-04-01T18:45:16.789Z,49.50
2019-04-01T18:47:47.186Z,48.90
2019-04-01T18:50:19.295Z,49.10
2019-04-01T18:52:50.785Z,49.20
2019-04-01T18:55:21.305Z,49.30
2019-04-01T18:57:52.213Z,49.40
2019-04-01T19:00:24.301Z,49.50
2019-04-01T19:02:55.714Z,49.70
2019-04-01T19:05:27.113Z,49.70
2019-04-01T19:07:57.829Z,49.90
2019-04-01T19:10:29.078Z,50.00
2019-04-01T19:13:06.609Z,50.30
2019-04-01T19:15:32.779Z,50.40
2019-04-01T19:18:05.349Z,50.60
2019-04-01T19:20:35.735Z,50.80
2019-04-01T19:23:06.173Z,50.80
2019-04-01T19:25:36.601Z,51.10
2019-04-01T19:28:06.963Z,51.00
2019-04-01T19:30:37.395Z,51.00
2019-04-01T19:33:08.906Z,51.20
2019-04-01T19:35:39.896Z,51.20
2019-04-01T19:38:10.595Z,51.20
2019-04-01T19:40:41.850Z,51.20
2019-04-01T19:43:12.212Z,51.20
2019-04-01T19:45:42.838Z,51.40
2019-04-01T19:48:13.671Z,51.40
2019-04-01T19:50:45.229Z,51.40
2019-04-01T19:53:15.965Z,51.50
2019-04-01T19:55:46.776Z,51.80
2019-04-01T19:58:17.381Z,51.40
2019-04-01T20:00:47.784Z,51.40
2019-04-01T20:03:18.222Z,51.10
2019-04-01T20:05:50.074Z,51.40
2019-04-01T20:08:21.019Z,51.60
2019-04-01T20:10:53.367Z,52.00
2019-04-01T20:13:24.111Z,52.20
2019-04-01T20:18:24.392Z,52.90
2019-04-01T20:20:54.899Z,52.90
2019-04-01T20:23:25.745Z,57.00
2019-04-01T20:25:56.171Z,52.80
2019-04-01T20:28:26.829Z,53.10
2019-04-01T20:30:57.233Z,53.00
2019-04-01T20:33:31.640Z,52.40
2019-04-01T20:36:01.074Z,52.50
2019-04-01T20:38:31.523Z,52.40
2019-04-01T20:41:01.963Z,52.40
2019-04-01T20:43:32.469Z,52.20
2019-04-01T20:46:03.120Z,52.10
2019-04-01T20:48:33.702Z,51.50
2019-04-01T20:51:04.285Z,51.50
2019-04-01T20:53:34.687Z,51.70
2019-04-01T20:56:05.546Z,51.90
2019-04-01T20:58:35.928Z,51.70
2019-04-01T21:01:07.168Z,51.70
2019-04-01T21:03:38.023Z,51.60
2019-04-01T21:06:08.551Z,51.60
2019-04-01T21:08:39.062Z,51.60
2019-04-01T21:11:10.234Z,51.70
2019-04-01T21:13:42.781Z,51.60
2019-04-01T21:16:13.363Z,51.50
2019-04-01T21:18:43.835Z,51.80
2019-04-01T21:21:16.927Z,51.90
2019-04-01T21:23:46.665Z,51.80
2019-04-01T21:26:17.470Z,51.80
2019-04-01T21:28:47.958Z,51.70
2019-04-01T21:31:18.385Z,51.70
2019-04-01T21:33:49.665Z,51.70
2019-04-01T21:36:20.313Z,51.60
2019-04-01T21:38:51.111Z,51.40
2019-04-01T21:41:21.835Z,51.20
2019-04-01T21:43:52.685Z,51.00
2019-04-01T21:46:24.320Z,50.90
2019-04-01T21:48:54.882Z,51.00
2019-04-01T21:51:25.319Z,51.70
2019-04-01T21:53:56.412Z,51.10
2019-04-01T21:56:28.074Z,50.90
2019-04-01T21:58:58.690Z,51.00
2019-04-01T22:01:29.147Z,51.00
2019-04-01T22:03:59.613Z,51.00
2019-04-01T22:06:30.019Z,50.80
2019-04-01T22:09:00.924Z,51.00
2019-04-01T22:11:33.360Z,51.00
2019-04-01T22:14:03.800Z,51.00
2019-04-01T22:16:34.443Z,51.00
2019-04-01T22:19:05.054Z,51.00
2019-04-01T22:21:35.455Z,51.20
2019-04-01T22:24:05.884Z,51.20
2019-04-01T22:26:36.272Z,51.10
2019-04-01T22:29:06.682Z,51.20
2019-04-01T22:31:37.392Z,51.00
2019-04-01T22:34:09.164Z,51.00
2019-04-01T22:36:41.580Z,51.30
2019-04-01T22:39:13.778Z,51.40
2019-04-01T22:41:44.217Z,51.20
2019-04-01T22:44:14.584Z,51.30
2019-04-01T22:46:44.971Z,51.40
2019-04-01T22:49:15.348Z,51.30
2019-04-01T22:51:45.721Z,51.40
2019-04-01T22:54:16.293Z,51.40
2019-04-01T22:56:46.919Z,51.40
2019-04-01T22:59:17.331Z,51.60
2019-04-01T23:01:47.667Z,51.60
2019-04-01T23:04:18.492Z,51.90
2019-04-01T23:06:49.166Z,51.90
2019-04-01T23:09:19.628Z,52.00
2019-04-01T23:11:49.978Z,52.00
2019-04-01T23:14:22.768Z,52.00
2019-04-01T23:16:53.174Z,52.10
2019-04-01T23:19:23.582Z,52.10
2019-04-01T23:21:53.936Z,52.30
2019-04-01T23:24:24.416Z,52.40
2019-04-01T23:26:55.322Z,52.40
2019-04-01T23:29:26.154Z,52.50
2019-04-01T23:31:56.505Z,52.50
2019-04-01T23:34:26.918Z,52.60
2019-04-01T23:36:57.308Z,52.70
2019-04-01T23:39:27.726Z,52.70
2019-04-01T23:41:58.425Z,52.90
2019-04-01T23:44:29.854Z,52.80
2019-04-01T23:47:00.258Z,52.80
2019-04-01T23:49:30.790Z,52.80
2019-04-01T23:52:01.540Z,52.80
2019-04-01T23:54:31.928Z,52.80
2019-04-01T23:57:02.376Z,52.80
2019-04-01T23:59:32.880Z,52.80
